長崎 の空港の天気 - METARとTAF

長崎空港 ( RJFU / NGS ) - 長崎県大村市
飛行場実況気象(Metar)
観測時間10/17 21:00 JST (10/17 12:00 UTC)
風向・風速北東 2m/s
視程10km以上
天気現象
少しの雲 雲底高度 910m
全天の8割程度の雲 雲底高度 1520m
気温19℃
湿度60%
気圧1018hPa
METARRJFU 171200Z 04004KT 010V100 9999 FEW030 BKN050 19/11 Q1018
過去の天気等 Google飛行場航空写真 Wunderground天気予報

過去48時間のMETAR

飛行場予報(TAF)
発表時間: 10/17 20:05 JST (10/17 11:05 UTC)
予報対象時間: 17日21時 JST ~ 19日3時 JST
風向・風速東北東 5m/s
視程10km以上
少しの雲 雲底高度 910m
全天の8割程度の雲 雲底高度 1,520m
18日2時 JST ~ 18日4時 JST に徐々に
風向・風速東南東 3m/s
18日12時 JST ~ 18日15時 JST に徐々に
風向・風速北北東 4m/s
18日15時 JST ~ 18日21時 JST に一時的に
視程3,000m
天気現象しゅう雨 もや
TAF RJFU 171105Z 1712/1818 06010KT 9999 FEW030 BKN050
BECMG 1717/1719 12005KT
BECMG 1803/1806 03008KT
TEMPO 1806/1812 3000 SHRA BR
日本の空港のMETAR・TAFへのリンク

RJTT 東京国際空港
RJAA 新東京国際空港
RJBB 関西国際空港
RJOO 大阪空港
RJGG 中部国際空港
RJCC 新千歳空港
RJFF 福岡空港
ROAH 那覇空港


RJEC 旭川空港
RJCH 函館空港
RJCK 釧路空港
RJCM 女満別空港
RJCB 帯広空港
RJSA 青森空港
RJSS 仙台空港
RJSK 秋田空港
RJSF 福島空港
RJAH 茨城空港
RJSN 新潟空港
RJNT 富山空港
RJNK 小松飛行場
RJNS 静岡空港
RJOH 美保飛行場
RJOC 出雲空港
RJOB 岡山空港
RJOA 広島空港
RJOI 岩国飛行場
RJOT 高松空港
RJOM 松山空港
RJOK 高知空港
RJFR 北九州空港
RJFT 熊本空港
RJFU 長崎空港
RJFS 佐賀空港
RJFO 大分空港
RJFM 宮崎空港
RJFK 鹿児島空港
ROIG 石垣島空港
RJTY 横田飛行場
ROTM 普天間飛行場
RODN 嘉手納飛行場